Blanchard, Iowa
Current Conditions -  °F | °C
As of 8:15 AM on Friday 19 Dec 2014 (Local Time) from KICL Reporting Station
Haze Haze  
Wind Chill: 24°   Ceiling: 400
Heat Index: 30°   Visibility: 2mi
Dew Point: 30°   Wind: 6mph
Humidity: 100%   Direction: 170°S
Pressure: 30.26"   Gusts: NA
Location:  40.58°N, 95.23°W
Report Text: KICL 191415Z AUTO 17005KT 2SM BR OVC004 M01/M01 A3026 RMK AO2
Loading
Personal Weather Stations






























Interactive Weather Map New forecast layout! Learn more

10-Day Weather Forecast

Advertisements
Track Severe Weather on mobile